createdAt,value
2023-03-12T00:04:07.370Z,76.10
2023-03-12T00:09:12.065Z,39.28
2023-03-12T00:14:17.802Z,19.20
2023-03-12T00:19:21.926Z,57.03
2023-03-12T00:24:26.265Z,16.70
2023-03-12T00:29:32.337Z,25.65
2023-03-12T00:34:36.810Z,11.30
2023-03-12T00:39:41.237Z,14.10
2023-03-12T00:44:46.846Z,13.88
2023-03-12T00:49:51.346Z,10.80
2023-03-12T00:54:58.493Z,10.13
2023-03-12T01:00:07.094Z,11.15
2023-03-12T01:05:14.499Z,9.38
2023-03-12T01:10:20.050Z,11.75
2023-03-12T01:15:26.019Z,12.02
2023-03-12T01:20:30.373Z,11.70
2023-03-12T01:25:35.006Z,11.77
2023-03-12T01:30:40.752Z,12.60
2023-03-12T01:35:45.298Z,12.25
2023-03-12T01:40:49.693Z,11.73
2023-03-12T01:46:23.127Z,13.27
2023-03-12T01:51:32.001Z,11.55
2023-03-12T01:56:37.880Z,11.00
2023-03-12T02:01:44.705Z,12.55
2023-03-12T02:06:54.764Z,13.38
2023-03-12T02:11:59.133Z,13.05
2023-03-12T02:17:06.114Z,11.13
2023-03-12T02:22:11.418Z,11.75
2023-03-12T02:27:19.546Z,11.70
2023-03-12T02:32:28.219Z,11.23
2023-03-12T02:37:32.886Z,12.07
2023-03-12T02:42:39.403Z,12.68
2023-03-12T02:47:43.892Z,12.23
2023-03-12T02:52:48.783Z,12.63
2023-03-12T02:57:54.374Z,13.75
2023-03-12T03:03:00.103Z,14.38
2023-03-12T03:08:04.909Z,12.73
2023-03-12T03:13:10.701Z,11.18
2023-03-12T03:18:15.261Z,11.13
2023-03-12T03:23:19.702Z,11.07
2023-03-12T03:28:27.261Z,11.30
2023-03-12T03:33:35.076Z,11.75
2023-03-12T03:38:39.957Z,12.77
2023-03-12T03:43:46.124Z,11.57
2023-03-12T03:48:52.684Z,11.98
2023-03-12T03:54:00.590Z,9.68
2023-03-12T03:59:07.525Z,13.40
2023-03-12T04:04:14.980Z,14.13
2023-03-12T04:09:19.765Z,14.38
2023-03-12T04:14:25.701Z,9.88
2023-03-12T04:19:30.582Z,10.30
2023-03-12T04:24:35.043Z,10.55
2023-03-12T04:29:42.276Z,11.48
2023-03-12T04:34:46.973Z,11.43
2023-03-12T04:39:53.588Z,10.77
2023-03-12T04:44:59.508Z,9.45
2023-03-12T04:50:04.153Z,10.18
2023-03-12T04:55:10.286Z,8.30
2023-03-12T05:00:17.764Z,10.73
2023-03-12T05:10:28.434Z,11.52
2023-03-12T05:15:38.525Z,12.35
2023-03-12T18:21:01.041Z,12.25
2023-03-12T18:26:06.001Z,12.68
2023-03-12T18:31:10.552Z,15.77
2023-03-12T18:36:16.412Z,16.08
2023-03-12T18:41:20.535Z,12.27
2023-03-12T18:46:25.179Z,12.20
2023-03-12T18:51:31.546Z,18.88
2023-03-12T18:56:39.392Z,18.42
2023-03-12T19:01:44.770Z,14.73
2023-03-12T19:06:51.962Z,14.38
2023-03-12T19:11:57.374Z,9.75
2023-03-12T19:17:01.790Z,19.85
2023-03-12T19:22:07.803Z,18.17
2023-03-12T19:27:12.775Z,11.27
2023-03-12T19:32:17.494Z,13.73
2023-03-12T19:37:23.462Z,15.88
2023-03-12T19:42:28.011Z,14.40
2023-03-12T19:47:33.399Z,15.85
2023-03-12T19:52:39.009Z,12.15
2023-03-12T19:57:43.514Z,9.90
2023-03-12T20:02:48.238Z,19.08
2023-03-12T20:07:53.985Z,17.98
2023-03-12T20:12:58.702Z,13.60
2023-03-12T20:18:02.837Z,12.15
2023-03-12T20:23:09.680Z,17.35
2023-03-12T20:28:14.035Z,12.65
2023-03-12T20:33:18.597Z,13.70
2023-03-12T20:38:24.115Z,13.77
2023-03-12T20:43:28.356Z,13.65
2023-03-12T20:48:32.685Z,16.20
2023-03-12T20:53:38.320Z,15.10
2023-03-12T20:58:42.469Z,9.05
2023-03-12T21:03:47.490Z,9.25
2023-03-12T21:08:53.221Z,12.15
2023-03-12T21:13:57.861Z,10.73
2023-03-12T21:19:02.077Z,11.90
2023-03-12T21:24:08.262Z,9.75
2023-03-12T21:29:12.723Z,10.20
2023-03-12T21:34:17.050Z,10.10
2023-03-12T21:39:23.133Z,13.65
2023-03-12T21:44:27.341Z,12.10
2023-03-12T21:49:32.042Z,9.23
2023-03-12T21:54:38.103Z,9.52
2023-03-12T21:59:42.646Z,8.90
2023-03-12T22:04:46.750Z,9.95
2023-03-12T22:09:52.337Z,9.13
2023-03-12T22:14:56.558Z,9.20
2023-03-12T22:20:01.096Z,10.10
2023-03-12T22:25:07.938Z,9.02
2023-03-12T22:30:14.900Z,10.98
2023-03-12T22:35:25.881Z,10.40
2023-03-12T22:40:31.678Z,8.82
2023-03-12T22:45:36.284Z,7.75
2023-03-12T22:50:40.445Z,9.98
2023-03-12T22:55:46.416Z,6.30
2023-03-12T23:00:50.880Z,5.82
2023-03-12T23:05:55.302Z,5.53
2023-03-12T23:11:03.188Z,8.50
2023-03-12T23:16:10.144Z,8.07
2023-03-12T23:21:17.313Z,6.93
2023-03-12T23:26:24.927Z,7.70
2023-03-12T23:31:30.546Z,5.65
2023-03-12T23:36:34.906Z,10.02
2023-03-12T23:41:40.940Z,10.25
2023-03-12T23:46:45.648Z,8.52
2023-03-12T23:51:50.069Z,9.20
2023-03-12T23:56:56.488Z,6.47
